Terminal Aerodrome Forecast
Issued by NWS Pueblo, CO

Home | Current Version | Previous Version | Text Only | Print | Product List | Glossary On
Versions: 1 2 3 4 5 6 7 8 9 10 11 12 13 14 15 16 17 18
000
FTUS45 KPUB 191417 AAA
TAFALS
TAF AMD
KALS 191417Z 1914/2012 20025G35KT 1 1/2SM -SN BR SCT035 BKN070
      OVC110
     FM191600 21030G48KT P6SM FEW040 BKN120
     FM192100 21025G40KT P6SM VCSH FEW020 BKN040
     FM200500 21020G32KT P6SM FEW050 BKN080=

USA.gov is the U.S. government's official web portal to all federal, state and local government web resources and services.